Plainfield, Ohio
Current Conditions -  °F | °C
As of 8:53 PM on Sunday 23 Nov 2014 (Local Time) from KZZV Reporting Station
Light Rain Light Rain  
Wind Chill: 53°   Ceiling: 6000
Heat Index: 53°   Visibility: 9mi
Dew Point: 49°   Wind: 12mph
Humidity: 86%   Direction: 130°SE
Pressure: 29.55"   Gusts: NA
Location:  40.21°N, 81.72°W
Report Text: KZZV 240153Z AUTO 13010KT 9SM -RA BKN060 BKN070 OVC090 12/09 A2955 RMK AO2 SLP006 P0004 T01170094
Loading
Personal Weather Stations






























Interactive Weather Map New forecast layout! Learn more

10-Day Weather Forecast

Advertisements
Track Severe Weather on mobile